createdAt,value
2022-09-14T00:02:06.707Z,96454.03
2022-09-14T00:05:08.532Z,96459.81
2022-09-14T00:08:10.717Z,96469.09
2022-09-14T00:11:14.122Z,96465.19
2022-09-14T00:14:16.130Z,96454.84
2022-09-14T00:17:17.911Z,96437.66
2022-09-14T00:20:19.302Z,96420.25
2022-09-14T00:23:20.998Z,96414.47
2022-09-14T00:26:23.432Z,96411.97
2022-09-14T00:29:24.899Z,96408.78
2022-09-14T00:32:26.283Z,96404.44
2022-09-14T00:35:28.177Z,96407.34
2022-09-14T00:38:29.583Z,96398.69
2022-09-14T00:41:35.034Z,96390.94
2022-09-14T00:44:36.595Z,96397.34
2022-09-14T00:47:38.110Z,96399.84
2022-09-14T00:50:39.562Z,96385.97
2022-09-14T00:53:41.127Z,96374.78
2022-09-14T00:56:42.652Z,96369.22
2022-09-14T00:59:46.009Z,96369.06
2022-09-14T01:02:47.373Z,96368.25
2022-09-14T01:06:11.780Z,96362.66
2022-09-14T01:09:40.284Z,96359.53
2022-09-14T01:12:50.706Z,96345.47
2022-09-14T01:16:03.046Z,96344.22
2022-09-14T01:19:14.772Z,96386.09
2022-09-14T01:22:53.381Z,96395.56
2022-09-14T01:26:12.630Z,96422.13
2022-09-14T01:29:34.834Z,96425.72
2022-09-14T01:32:48.947Z,96428.19
2022-09-14T01:35:56.930Z,96410.13
2022-09-14T01:39:00.734Z,96382.34
2022-09-14T01:42:03.692Z,96391.56
2022-09-14T01:45:10.135Z,96418.28
2022-09-14T01:48:15.810Z,96459.34
2022-09-14T01:51:25.817Z,96460.38
2022-09-14T01:54:42.613Z,96478.16
2022-09-14T01:57:53.807Z,96458.44
2022-09-14T02:00:59.049Z,96469.22
2022-09-14T02:04:04.195Z,96468.59
2022-09-14T02:07:06.305Z,96465.47
2022-09-14T02:10:11.630Z,96454.47
2022-09-14T02:13:13.761Z,96451.75
2022-09-14T02:16:15.352Z,96455.84
2022-09-14T02:19:20.534Z,96461.84
2022-09-14T02:22:26.315Z,96463.91
2022-09-14T02:25:27.732Z,96472.44
2022-09-14T02:28:29.178Z,96474.34
2022-09-14T02:31:49.057Z,96470.19
2022-09-14T02:34:57.808Z,96462.47
2022-09-14T02:38:20.330Z,96453.94
2022-09-14T02:41:27.075Z,96458.41
2022-09-14T02:44:58.802Z,96459.06
2022-09-14T02:48:19.390Z,96455.81
2022-09-14T02:51:27.770Z,96459.06
2022-09-14T02:54:40.121Z,96476.25
2022-09-14T02:58:03.805Z,96457.47
2022-09-14T03:01:07.498Z,96456.59
2022-09-14T03:04:09.225Z,96449.59
2022-09-14T03:07:10.726Z,96449.72
2022-09-14T03:10:12.192Z,96433.00
2022-09-14T03:13:13.619Z,96432.16
2022-09-14T03:16:17.086Z,96433.44
2022-09-14T03:19:18.743Z,96445.03
2022-09-14T03:22:20.118Z,96445.03
2022-09-14T03:25:23.018Z,96428.81
2022-09-14T03:28:24.626Z,96420.03
2022-09-14T03:31:26.597Z,96421.84
2022-09-14T03:34:28.039Z,96413.19
2022-09-14T03:37:29.512Z,96409.72
2022-09-14T03:40:31.273Z,96418.00
2022-09-14T03:43:33.718Z,96412.66
2022-09-14T03:46:35.170Z,96422.97
2022-09-14T03:49:36.617Z,96419.66
2022-09-14T03:52:38.845Z,96416.13
2022-09-14T03:55:41.419Z,96403.25
2022-09-14T03:58:44.367Z,96397.88
2022-09-14T04:01:46.300Z,96370.56
2022-09-14T04:04:48.222Z,96379.66
2022-09-14T04:07:49.661Z,96366.03
2022-09-14T04:10:51.263Z,96348.84
2022-09-14T04:13:53.218Z,96366.88
2022-09-14T04:16:54.587Z,96363.13
2022-09-14T04:19:56.013Z,96354.03
2022-09-14T04:22:57.570Z,96361.63
2022-09-14T04:25:59.603Z,96360.53
2022-09-14T04:29:01.030Z,96361.19
2022-09-14T04:32:03.235Z,96366.16
2022-09-14T04:35:04.870Z,96367.66
2022-09-14T04:38:06.318Z,96367.00
2022-09-14T04:41:13.615Z,96366.81
2022-09-14T04:44:15.305Z,96370.97
2022-09-14T04:47:16.681Z,96373.47
2022-09-14T04:50:18.063Z,96375.91
2022-09-14T04:53:19.498Z,96365.59
2022-09-14T04:56:24.110Z,96374.09
2022-09-14T04:59:25.939Z,96379.50
2022-09-14T05:02:27.355Z,96373.06
2022-09-14T05:05:28.753Z,96366.25
2022-09-14T05:08:30.433Z,96374.16
2022-09-14T05:11:34.211Z,96371.00
2022-09-14T05:14:35.628Z,96372.88
2022-09-14T05:17:37.008Z,96365.63
2022-09-14T05:20:39.176Z,96380.94
2022-09-14T05:23:41.043Z,96386.56
2022-09-14T05:26:43.748Z,96379.34
2022-09-14T05:29:45.105Z,96389.94
2022-09-14T05:32:46.489Z,96387.94
2022-09-14T05:35:48.783Z,96381.97
2022-09-14T05:38:50.500Z,96389.41
2022-09-14T05:41:52.021Z,96387.78
2022-09-14T05:44:53.389Z,96383.41
2022-09-14T05:47:54.822Z,96379.06
2022-09-14T05:51:05.579Z,96389.25
2022-09-14T05:54:11.340Z,96384.69
2022-09-14T05:57:12.783Z,96370.59
2022-09-14T06:00:15.193Z,96373.75
2022-09-14T06:03:16.630Z,96364.84
2022-09-14T06:06:19.553Z,96373.75
2022-09-14T06:09:21.022Z,96372.38
2022-09-14T06:12:23.298Z,96382.97
2022-09-14T06:15:24.766Z,96387.16
2022-09-14T06:18:26.209Z,96393.00
2022-09-14T06:21:30.954Z,96397.38
2022-09-14T06:24:33.200Z,96395.75
2022-09-14T06:27:34.642Z,96396.59
2022-09-14T06:30:36.082Z,96401.38
2022-09-14T06:33:37.574Z,96395.16
2022-09-14T06:36:39.044Z,96394.34
2022-09-14T06:39:40.467Z,96395.78
2022-09-14T06:42:41.899Z,96410.31
2022-09-14T06:45:43.302Z,96402.22
2022-09-14T06:49:03.569Z,96407.03
2022-09-14T06:52:05.018Z,96401.41
2022-09-14T06:55:06.829Z,96398.31
2022-09-14T06:58:09.426Z,96389.81
2022-09-14T07:01:14.785Z,96392.06
2022-09-14T07:04:16.550Z,96380.03
2022-09-14T07:07:18.000Z,96385.84
2022-09-14T07:10:19.517Z,96390.41
2022-09-14T07:13:20.940Z,96395.56
2022-09-14T07:16:22.386Z,96404.53
2022-09-14T07:19:23.763Z,96409.25
2022-09-14T07:22:25.180Z,96411.13
2022-09-14T07:25:26.626Z,96406.31
2022-09-14T07:28:28.246Z,96397.38
2022-09-14T07:31:35.482Z,96398.41
2022-09-14T07:34:36.898Z,96395.69
2022-09-14T07:37:38.272Z,96399.88
2022-09-14T07:40:39.633Z,96404.03
2022-09-14T07:43:41.383Z,96398.16
2022-09-14T07:46:44.683Z,96406.25
2022-09-14T07:49:46.091Z,96415.97
2022-09-14T07:52:51.058Z,96410.94
2022-09-14T07:55:52.736Z,96421.06
2022-09-14T07:59:07.125Z,96416.25
2022-09-14T08:02:18.503Z,96405.59
2022-09-14T08:05:20.034Z,96407.78
2022-09-14T08:08:21.699Z,96409.63
2022-09-14T08:11:31.364Z,96412.88
2022-09-14T08:14:32.878Z,96420.50
2022-09-14T08:17:34.222Z,96418.19
2022-09-14T08:20:35.626Z,96418.13
2022-09-14T08:23:39.580Z,96422.06
2022-09-14T08:26:41.056Z,96441.47
2022-09-14T08:29:42.393Z,96461.38
2022-09-14T08:32:45.552Z,96456.03
2022-09-14T08:35:57.781Z,96452.66
2022-09-14T08:39:00.575Z,96448.88
2022-09-14T08:42:05.951Z,96468.25
2022-09-14T08:45:09.886Z,96471.69
2022-09-14T08:48:27.159Z,96470.69
2022-09-14T08:51:29.524Z,96478.59
2022-09-14T08:54:33.247Z,96465.03
2022-09-14T08:57:40.495Z,96466.00
2022-09-14T09:00:59.242Z,96454.28
2022-09-14T09:04:00.713Z,96455.84
2022-09-14T09:07:12.128Z,96457.38
2022-09-14T09:10:13.824Z,96456.19
2022-09-14T09:13:20.227Z,96459.34
2022-09-14T09:16:24.711Z,96468.88
2022-09-14T09:19:34.445Z,96459.34
2022-09-14T09:22:41.526Z,96453.84
2022-09-14T09:25:50.052Z,96449.66
2022-09-14T09:28:58.596Z,96445.44
2022-09-14T09:32:00.196Z,96456.22
2022-09-14T09:35:24.598Z,96439.38
2022-09-14T09:38:34.639Z,96447.72
2022-09-14T09:41:51.259Z,96440.44
2022-09-14T09:45:05.919Z,96420.66
2022-09-14T09:48:10.916Z,96415.47
2022-09-14T09:51:15.417Z,96407.91
2022-09-14T09:54:16.758Z,96411.81
2022-09-14T09:57:36.818Z,96400.34
2022-09-14T10:00:38.280Z,96394.50
2022-09-14T10:03:40.785Z,96393.34
2022-09-14T10:06:45.344Z,96396.66
2022-09-14T10:09:57.502Z,96378.44
2022-09-14T10:12:58.970Z,96380.13
2022-09-14T10:16:07.709Z,96357.19
2022-09-14T10:19:14.944Z,96356.78
2022-09-14T10:22:26.644Z,96361.50
2022-09-14T10:25:28.720Z,96350.53
2022-09-14T10:28:33.667Z,96347.13
2022-09-14T10:31:37.251Z,96335.78
2022-09-14T10:34:38.645Z,96333.06
2022-09-14T10:37:50.534Z,96328.34
2022-09-14T10:41:19.517Z,96327.94
2022-09-14T10:44:52.508Z,96324.16
2022-09-14T10:48:12.211Z,96311.97
2022-09-14T10:51:29.410Z,96313.44
2022-09-14T10:55:08.653Z,96301.22
2022-09-14T10:58:33.809Z,96284.09
2022-09-14T11:02:05.376Z,96286.00
2022-09-14T11:05:12.900Z,96289.97
2022-09-14T11:08:34.790Z,96276.16
2022-09-14T11:12:08.988Z,96290.84
2022-09-14T11:15:23.682Z,96271.53
2022-09-14T11:18:45.443Z,96271.53
2022-09-14T11:22:00.744Z,96270.38
2022-09-14T11:25:16.586Z,96271.44
2022-09-14T11:28:28.954Z,96274.75
2022-09-14T11:31:38.763Z,96262.38
2022-09-14T11:34:57.760Z,96255.88
2022-09-14T11:38:02.944Z,96258.38
2022-09-14T11:41:07.769Z,96256.00
2022-09-14T11:44:24.414Z,96258.47
2022-09-14T11:47:26.359Z,96256.34
2022-09-14T11:50:31.519Z,96257.31
2022-09-14T11:53:33.981Z,96272.72
2022-09-14T11:56:35.673Z,96276.22
2022-09-14T11:59:39.892Z,96268.16
2022-09-14T12:02:42.879Z,96275.25
2022-09-14T12:05:45.473Z,96270.97
2022-09-14T12:08:47.581Z,96270.63
2022-09-14T12:11:54.335Z,96273.59
2022-09-14T12:14:59.650Z,96277.88
2022-09-14T12:18:06.936Z,96271.25
2022-09-14T12:21:26.474Z,96275.72
2022-09-14T12:24:27.899Z,96285.69
2022-09-14T12:27:36.924Z,96284.78
2022-09-14T12:30:41.474Z,96299.84
2022-09-14T12:33:43.874Z,96295.84
2022-09-14T12:36:45.278Z,96303.63
2022-09-14T12:40:20.614Z,96305.97
2022-09-14T12:43:37.412Z,96318.28
2022-09-14T12:46:39.880Z,96330.00
2022-09-14T12:49:41.537Z,96350.69
2022-09-14T12:53:12.719Z,96369.28
2022-09-14T12:56:23.788Z,96360.47
2022-09-14T13:00:10.426Z,96366.03
2022-09-14T13:03:46.100Z,96355.13
2022-09-14T13:06:47.742Z,96368.97
2022-09-14T13:09:55.034Z,96366.66
2022-09-14T13:12:56.532Z,96371.03
2022-09-14T13:16:00.849Z,96372.38
2022-09-14T13:19:07.151Z,96378.22
2022-09-14T13:22:24.620Z,96372.97
2022-09-14T13:25:35.339Z,96374.91
2022-09-14T13:28:37.482Z,96369.41
2022-09-14T13:31:39.697Z,96380.06
2022-09-14T13:34:41.175Z,96363.69
2022-09-14T13:37:47.576Z,96375.25
2022-09-14T13:40:52.197Z,96379.56
2022-09-14T13:43:56.008Z,96371.94
2022-09-14T13:46:59.654Z,96365.47
2022-09-14T13:50:01.199Z,96368.97
2022-09-14T13:53:04.140Z,96362.56
2022-09-14T13:56:17.380Z,96356.81
2022-09-14T13:59:21.756Z,96357.03
2022-09-14T14:02:23.489Z,96342.72
2022-09-14T14:05:32.479Z,96345.00
2022-09-14T14:08:38.479Z,96345.16
2022-09-14T14:11:42.835Z,96349.97
2022-09-14T14:14:52.996Z,96353.88
2022-09-14T14:17:54.741Z,96348.09
2022-09-14T14:21:05.238Z,96349.69
2022-09-14T14:24:27.771Z,96343.88
2022-09-14T14:27:35.882Z,96345.00
2022-09-14T14:30:40.224Z,96349.13
2022-09-14T14:33:50.910Z,96366.03
2022-09-14T14:36:52.890Z,96380.03
2022-09-14T14:39:54.330Z,96393.13
2022-09-14T14:42:58.501Z,96412.53
2022-09-14T14:46:01.297Z,96411.91
2022-09-14T14:49:02.761Z,96411.72
2022-09-14T14:52:04.268Z,96400.53
2022-09-14T14:55:06.165Z,96396.22
2022-09-14T14:58:12.807Z,96391.09
2022-09-14T15:01:14.262Z,96387.41
2022-09-14T15:04:16.257Z,96396.94
2022-09-14T15:07:17.614Z,96386.63
2022-09-14T15:10:20.740Z,96397.44
2022-09-14T15:13:22.135Z,96384.97
2022-09-14T15:16:23.647Z,96372.09
2022-09-14T15:19:26.229Z,96376.03
2022-09-14T15:22:27.696Z,96377.09
2022-09-14T15:25:29.341Z,96366.31
2022-09-14T15:28:30.961Z,96361.34
2022-09-14T15:31:32.812Z,96355.25
2022-09-14T15:34:34.251Z,96337.00
2022-09-14T15:37:35.682Z,96340.91
2022-09-14T15:40:37.407Z,96326.34
2022-09-14T15:43:38.858Z,96317.88
2022-09-14T15:46:40.327Z,96295.84
2022-09-14T15:49:42.386Z,96271.34
2022-09-14T15:52:43.813Z,96277.41
2022-09-14T15:55:45.904Z,96295.66
2022-09-14T15:58:48.227Z,96277.16
2022-09-14T16:01:49.920Z,96276.22
2022-09-14T16:04:51.533Z,96267.66
2022-09-14T16:07:54.989Z,96252.50
2022-09-14T16:10:58.084Z,96237.69
2022-09-14T16:13:59.978Z,96250.03
2022-09-14T16:17:01.635Z,96231.28
2022-09-14T16:20:05.133Z,96221.88
2022-09-14T16:23:06.570Z,96203.22
2022-09-14T16:26:17.130Z,96228.66
2022-09-14T16:29:20.545Z,96221.28
2022-09-14T16:32:22.089Z,96239.16
2022-09-14T16:35:23.673Z,96228.31
2022-09-14T16:38:25.079Z,96229.19
2022-09-14T16:41:27.419Z,96245.81
2022-09-14T16:44:29.003Z,96256.41
2022-09-14T16:47:32.164Z,96268.03
2022-09-14T16:50:33.557Z,96265.78
2022-09-14T16:53:37.487Z,96259.94
2022-09-14T16:56:39.025Z,96274.09
2022-09-14T16:59:40.429Z,96267.88
2022-09-14T17:02:42.737Z,96272.06
2022-09-14T17:05:44.141Z,96269.38
2022-09-14T17:08:46.052Z,96268.34
2022-09-14T17:11:48.509Z,96265.66
2022-09-14T17:14:49.879Z,96272.31
2022-09-14T17:17:52.348Z,96282.31
2022-09-14T17:20:56.178Z,96290.81
2022-09-14T17:23:58.064Z,96288.53
2022-09-14T17:26:59.429Z,96289.34
2022-09-14T17:30:00.861Z,96293.28
2022-09-14T17:33:02.293Z,96293.91
2022-09-14T17:36:05.423Z,96286.66
2022-09-14T17:39:11.535Z,96287.28
2022-09-14T17:42:13.542Z,96284.59
2022-09-14T17:45:15.044Z,96287.91
2022-09-14T17:48:16.442Z,96298.69
2022-09-14T17:51:22.287Z,96289.56
2022-09-14T17:54:23.723Z,96282.28
2022-09-14T17:57:25.344Z,96289.34
2022-09-14T18:00:26.799Z,96298.03
2022-09-14T18:03:28.249Z,96301.75
2022-09-14T18:06:35.514Z,96310.69
2022-09-14T18:09:37.415Z,96317.50
2022-09-14T18:12:39.679Z,96319.59
2022-09-14T18:15:41.072Z,96330.56
2022-09-14T18:18:42.749Z,96335.13
2022-09-14T18:21:45.887Z,96328.25
2022-09-14T18:24:49.285Z,96325.34
2022-09-14T18:27:50.693Z,96323.06
2022-09-14T18:31:09.881Z,96312.69
2022-09-14T18:34:11.326Z,96311.25
2022-09-14T18:37:13.374Z,96307.69
2022-09-14T18:40:19.527Z,96313.06
2022-09-14T18:43:22.526Z,96312.00
2022-09-14T18:46:28.043Z,96318.59
2022-09-14T18:49:29.876Z,96331.44
2022-09-14T18:52:31.536Z,96324.75
2022-09-14T18:55:33.730Z,96335.72
2022-09-14T18:58:37.337Z,96330.75
2022-09-14T19:01:39.009Z,96334.09
2022-09-14T19:04:40.684Z,96334.69
2022-09-14T19:07:42.071Z,96336.56
2022-09-14T19:10:43.563Z,96332.41
2022-09-14T19:13:46.381Z,96328.28
2022-09-14T19:16:48.048Z,96333.25
2022-09-14T19:19:49.558Z,96330.13
2022-09-14T19:22:55.762Z,96325.59
2022-09-14T19:26:22.959Z,96331.41
2022-09-14T19:29:25.246Z,96323.31
2022-09-14T19:32:26.991Z,96327.06
2022-09-14T19:35:30.256Z,96315.38
2022-09-14T19:38:31.699Z,96317.00
2022-09-14T19:41:34.438Z,96327.34
2022-09-14T19:44:35.917Z,96323.03
2022-09-14T19:47:37.669Z,96328.84
2022-09-14T19:50:39.054Z,96330.31
2022-09-14T19:53:41.433Z,96322.25
2022-09-14T19:56:43.531Z,96332.56
2022-09-14T19:59:45.063Z,96342.72
2022-09-14T20:02:46.543Z,96338.97
2022-09-14T20:05:48.347Z,96335.03
2022-09-14T20:08:55.594Z,96342.50
2022-09-14T20:11:57.048Z,96347.69
2022-09-14T20:14:58.468Z,96350.13
2022-09-14T20:17:59.837Z,96350.13
2022-09-14T20:21:01.416Z,96360.53
2022-09-14T20:24:15.582Z,96360.91
2022-09-14T20:27:17.872Z,96350.34
2022-09-14T20:30:19.272Z,96350.38
2022-09-14T20:33:20.658Z,96349.50
2022-09-14T20:36:23.515Z,96349.69
2022-09-14T20:39:25.002Z,96354.63
2022-09-14T20:42:26.365Z,96357.91
2022-09-14T20:45:28.041Z,96357.28
2022-09-14T20:48:30.054Z,96357.91
2022-09-14T20:51:32.159Z,96356.25
2022-09-14T20:54:33.568Z,96337.81
2022-09-14T20:57:34.957Z,96337.38
2022-09-14T21:00:36.431Z,96339.63
2022-09-14T21:03:40.838Z,96349.78
2022-09-14T21:06:45.323Z,96342.16
2022-09-14T21:09:46.701Z,96340.47
2022-09-14T21:12:48.125Z,96352.44
2022-09-14T21:15:49.784Z,96354.91
2022-09-14T21:18:54.594Z,96346.69
2022-09-14T21:21:56.467Z,96358.50
2022-09-14T21:24:57.862Z,96339.06
2022-09-14T21:27:59.868Z,96337.44
2022-09-14T21:31:10.674Z,96335.56
2022-09-14T21:34:12.584Z,96338.88
2022-09-14T21:37:14.062Z,96344.84
2022-09-14T21:40:18.215Z,96334.53
2022-09-14T21:43:19.665Z,96344.06
2022-09-14T21:46:21.425Z,96344.88
2022-09-14T21:49:23.393Z,96340.53
2022-09-14T21:52:24.824Z,96339.31
2022-09-14T21:55:28.379Z,96333.69
2022-09-14T21:58:29.818Z,96331.00
2022-09-14T22:01:31.567Z,96329.31
2022-09-14T22:04:33.041Z,96343.56
2022-09-14T22:07:35.628Z,96327.06
2022-09-14T22:10:37.041Z,96316.09
2022-09-14T22:13:39.082Z,96313.41
2022-09-14T22:16:41.708Z,96316.91
2022-09-14T22:19:43.219Z,96315.25
2022-09-14T22:22:44.593Z,96323.13
2022-09-14T22:25:46.461Z,96325.59
2022-09-14T22:28:50.415Z,96315.50
2022-09-14T22:31:52.341Z,96325.59
2022-09-14T22:34:53.982Z,96327.28
2022-09-14T22:37:55.378Z,96336.78
2022-09-14T22:40:58.945Z,96338.44
2022-09-14T22:44:01.011Z,96332.44
2022-09-14T22:47:02.443Z,96339.69
2022-09-14T22:50:04.163Z,96356.25
2022-09-14T22:53:05.534Z,96358.94
2022-09-14T22:56:19.722Z,96356.91
2022-09-14T22:59:21.107Z,96356.44
2022-09-14T23:02:22.779Z,96356.91
2022-09-14T23:05:24.286Z,96363.28
2022-09-14T23:08:27.151Z,96370.34
2022-09-14T23:11:29.539Z,96375.94
2022-09-14T23:14:31.855Z,96383.84
2022-09-14T23:17:33.224Z,96368.75
2022-09-14T23:20:43.286Z,96381.56
2022-09-14T23:23:44.753Z,96387.97
2022-09-14T23:26:46.445Z,96389.84
2022-09-14T23:29:48.331Z,96403.94
2022-09-14T23:32:49.706Z,96401.88
2022-09-14T23:35:51.097Z,96393.59
2022-09-14T23:38:52.841Z,96405.00
2022-09-14T23:41:54.587Z,96414.31
2022-09-14T23:44:56.011Z,96411.00
2022-09-14T23:47:57.388Z,96409.09
2022-09-14T23:51:00.595Z,96408.84
2022-09-14T23:54:02.092Z,96393.91
2022-09-14T23:57:03.567Z,96391.63
